Time;durP1;ratioP1;P1;durP2;ratioP2;P2;SDS_P1;SDS_P2;PMS_P1;PMS_P2;Temp;Humidity;BMP_temperature;BMP_pressure;BME280_temperature;BME280_humidity;BME280_pressure;Samples;Min_cycle;Max_cycle;Signal;HPM_P1;HPM_P2
2023/03/11 00:00:23;;;;;;;0.60;0.43;;;;;;;20.76;32.96;98506.86;1836538;77;28204;-56
2023/03/11 00:03:14;;;;;;;0.60;0.60;;;;;;;20.74;33.03;98516.67;1836426;76;28146;-54
2023/03/11 00:06:03;;;;;;;0.60;0.60;;;;;;;20.74;33.03;98502.19;1838264;77;28276;-51
2023/03/11 00:08:51;;;;;;;0.60;0.60;;;;;;;20.73;32.99;98520.99;1851098;76;28077;-56
2023/03/11 00:11:40;;;;;;;0.53;0.53;;;;;;;20.73;33.03;98512.27;1847457;76;28110;-57
2023/03/11 00:14:29;;;;;;;0.55;0.55;;;;;;;20.75;33.03;98514.22;1847619;76;28192;-54
2023/03/11 00:17:17;;;;;;;0.55;0.55;;;;;;;20.75;33.03;98503.86;1851774;76;30357;-54
2023/03/11 00:20:07;;;;;;;0.70;0.70;;;;;;;20.75;33.00;98496.48;1849226;76;28040;-53
2023/03/11 00:22:56;;;;;;;0.50;0.50;;;;;;;20.76;33.02;98490.48;1847641;76;28108;-56
2023/03/11 00:25:46;;;;;;;0.60;0.60;;;;;;;20.74;33.00;98473.01;1847426;76;28161;-56
2023/03/11 00:28:35;;;;;;;0.60;0.60;;;;;;;20.76;32.97;98465.92;1841701;77;28164;-56
2023/03/11 00:31:25;;;;;;;0.60;0.60;;;;;;;20.71;33.01;98459.02;1836420;77;28104;-52
2023/03/11 00:34:14;;;;;;;0.50;0.50;;;;;;;20.75;33.02;98473.84;1835878;77;28750;-55
2023/03/11 00:37:02;;;;;;;0.50;0.50;;;;;;;20.76;33.01;98460.47;1836464;77;28155;-56
2023/03/11 00:39:51;;;;;;;0.50;0.50;;;;;;;20.76;33.03;98457.73;1852462;76;28064;-55
2023/03/11 00:42:40;;;;;;;0.28;0.28;;;;;;;20.76;32.98;98458.58;1859158;76;28169;-56
2023/03/11 00:45:31;;;;;;;0.60;0.60;;;;;;;20.76;33.01;98450.39;1862833;76;28112;-53
2023/03/11 00:48:19;;;;;;;0.50;0.50;;;;;;;20.75;33.00;98443.27;1848853;76;28176;-55
2023/03/11 00:51:09;;;;;;;0.50;0.50;;;;;;;20.76;32.99;98438.11;1851856;76;28045;-56
2023/03/11 00:53:59;;;;;;;0.70;0.70;;;;;;;20.76;33.00;98442.20;1859476;76;28149;-55
2023/03/11 00:56:49;;;;;;;0.45;0.45;;;;;;;20.77;32.98;98450.66;1846466;77;28233;-55
2023/03/11 00:59:38;;;;;;;0.60;0.60;;;;;;;20.76;33.03;98438.11;1845648;77;28103;-54
2023/03/11 01:02:27;;;;;;;0.50;0.50;;;;;;;20.76;33.04;98436.74;1842496;75;28194;-55
2023/03/11 01:05:17;;;;;;;2.00;0.60;;;;;;;20.75;33.02;98432.34;1856533;76;28100;-55
2023/03/11 01:08:05;;;;;;;0.78;0.78;;;;;;;20.76;33.01;98431.28;1857134;76;28199;-56
2023/03/11 01:10:54;;;;;;;0.47;0.47;;;;;;;20.76;33.03;98419.53;1859357;76;28197;-51
2023/03/11 01:13:42;;;;;;;0.70;0.70;;;;;;;20.75;33.05;98417.90;1859503;76;28056;-54
2023/03/11 01:16:30;;;;;;;0.40;0.40;;;;;;;20.76;33.03;98403.16;1857069;76;28115;-57
2023/03/11 01:19:19;;;;;;;0.30;0.30;;;;;;;20.76;33.02;98403.16;1856488;76;28145;-54
2023/03/11 01:22:09;;;;;;;0.75;0.60;;;;;;;20.75;33.01;98402.89;1861135;76;28295;-55
2023/03/11 01:24:57;;;;;;;0.37;0.37;;;;;;;20.74;33.07;98393.87;1857999;76;28080;-56
2023/03/11 01:27:46;;;;;;;0.50;0.50;;;;;;;20.74;33.08;98377.50;1872147;76;28138;-54
2023/03/11 01:30:37;;;;;;;0.70;0.40;;;;;;;20.76;33.06;98386.25;1867911;76;28163;-54
2023/03/11 01:33:26;;;;;;;0.60;0.60;;;;;;;20.77;33.05;98374.81;1861747;76;28271;-54
2023/03/11 01:36:14;;;;;;;0.60;0.60;;;;;;;20.76;33.06;98389.52;1857309;76;28298;-55
2023/03/11 01:39:03;;;;;;;0.50;0.50;;;;;;;20.77;33.02;98373.44;1857057;76;28051;-56
2023/03/11 01:41:51;;;;;;;0.68;0.50;;;;;;;20.77;33.02;98370.16;1856846;76;28238;-56
2023/03/11 01:44:40;;;;;;;1.20;0.57;;;;;;;20.76;33.04;98371.25;1861851;76;28086;-54
2023/03/11 01:47:37;;;;;;;0.47;0.47;;;;;;;20.77;33.03;98355.14;1868171;76;28145;-53
2023/03/11 01:50:29;;;;;;;0.47;0.47;;;;;;;20.76;33.06;98360.33;1867849;76;28125;-54
2023/03/11 01:53:18;;;;;;;0.57;0.50;;;;;;;20.78;33.05;98354.61;1845318;76;28259;-55
2023/03/11 01:56:08;;;;;;;0.50;0.50;;;;;;;20.76;33.05;98336.30;1862235;76;28056;-55
2023/03/11 01:58:56;;;;;;;0.60;0.60;;;;;;;20.74;33.08;98328.38;1848642;76;28250;-57
2023/03/11 02:01:48;;;;;;;0.50;0.50;;;;;;;20.75;33.06;98323.19;1867483;76;28197;-56
2023/03/11 02:04:38;;;;;;;0.80;0.50;;;;;;;20.73;33.08;98307.61;1863984;76;28147;-57
2023/03/11 02:07:27;;;;;;;0.40;0.40;;;;;;;20.73;33.10;98332.70;1862363;76;28098;-56
2023/03/11 02:10:17;;;;;;;0.45;0.45;;;;;;;20.75;33.06;98311.47;1857198;76;28099;-53
2023/03/11 02:13:05;;;;;;;0.57;0.57;;;;;;;20.75;33.08;98290.44;1856767;76;28542;-53
2023/03/11 02:15:55;;;;;;;0.40;0.40;;;;;;;20.75;33.08;98304.08;1857359;76;28297;-55
2023/03/11 02:18:45;;;;;;;0.50;0.50;;;;;;;20.74;33.06;98302.45;1862166;76;28048;-55
2023/03/11 02:21:35;;;;;;;1.00;0.60;;;;;;;20.77;33.04;98280.09;1878356;76;28106;-56
2023/03/11 02:24:42;;;;;;;0.30;0.30;;;;;;;20.75;33.07;98273.27;1856985;76;28065;-56
2023/03/11 02:27:34;;;;;;;0.40;0.40;;;;;;;20.78;33.09;98273.57;1875193;76;28108;-55
2023/03/11 02:30:27;;;;;;;0.30;0.30;;;;;;;20.75;33.08;98261.78;1845407;77;28240;-53
2023/03/11 02:33:18;;;;;;;0.60;0.60;;;;;;;20.77;33.08;98262.92;1861365;76;28126;-53
2023/03/11 02:36:09;;;;;;;0.50;0.50;;;;;;;20.76;33.09;98244.88;1868423;76;28177;-56
2023/03/11 02:38:57;;;;;;;0.50;0.50;;;;;;;20.76;33.07;98227.97;1867929;76;28180;-56
2023/03/11 02:41:46;;;;;;;0.50;0.50;;;;;;;20.77;33.07;98223.35;1866261;76;28086;-59
2023/03/11 02:44:35;;;;;;;0.40;0.40;;;;;;;20.79;33.05;98228.02;1846308;77;28157;-58
2023/03/11 02:47:24;;;;;;;0.30;0.30;;;;;;;20.78;33.05;98218.99;1855450;76;28055;-58
2023/03/11 02:50:15;;;;;;;0.50;0.50;;;;;;;20.78;33.04;98216.80;1856880;76;28259;-56
2023/03/11 02:53:06;;;;;;;0.50;0.50;;;;;;;20.78;33.03;98220.36;1877465;76;28094;-55
2023/03/11 02:55:54;;;;;;;0.55;0.55;;;;;;;20.77;33.08;98220.05;1860041;76;28142;-57
2023/03/11 02:58:42;;;;;;;0.40;0.40;;;;;;;20.77;33.06;98206.41;1856824;76;28104;-57
2023/03/11 03:01:31;;;;;;;0.50;0.50;;;;;;;20.80;33.07;98204.55;1856849;76;28134;-56
2023/03/11 03:04:20;;;;;;;0.40;0.40;;;;;;;20.78;33.08;98202.62;1860250;76;28245;-53
2023/03/11 03:07:08;;;;;;;0.40;0.40;;;;;;;20.78;33.09;98188.97;1859057;76;28100;-54
2023/03/11 03:09:58;;;;;;;0.40;0.40;;;;;;;20.79;33.06;98207.01;1856997;76;28173;-56
2023/03/11 03:12:46;;;;;;;0.50;0.50;;;;;;;20.79;33.06;98207.55;1857009;76;28317;-55
2023/03/11 03:15:34;;;;;;;0.45;0.45;;;;;;;20.79;33.06;98203.45;1861037;76;28210;-52
2023/03/11 03:18:23;;;;;;;0.47;0.47;;;;;;;20.79;33.03;98210.27;1857327;76;28064;-57
2023/03/11 03:21:11;;;;;;;0.40;0.40;;;;;;;20.80;33.06;98232.37;1873454;76;28262;-54
2023/03/11 03:24:00;;;;;;;0.35;0.35;;;;;;;20.79;33.08;98227.48;1866980;76;28060;-56
2023/03/11 03:26:48;;;;;;;0.50;0.50;;;;;;;20.79;33.06;98197.99;1846801;76;28157;-52
2023/03/11 03:29:36;;;;;;;0.30;0.30;;;;;;;20.79;33.05;98217.09;1839797;76;28075;-54
2023/03/11 03:32:25;;;;;;;0.57;0.57;;;;;;;20.80;33.05;98199.63;1856918;76;28114;-56
2023/03/11 03:35:14;;;;;;;0.43;0.43;;;;;;;20.78;33.10;98197.69;1858263;76;28141;-55
2023/03/11 03:38:16;;;;;;;0.40;0.40;;;;;;;20.79;33.10;98200.72;1863554;76;28062;-56
2023/03/11 03:41:05;;;;;;;0.47;0.47;;;;;;;20.77;33.15;98178.32;1857949;76;28085;-56
2023/03/11 03:43:54;;;;;;;0.50;0.50;;;;;;;20.77;33.11;98173.66;1857109;76;28063;-55
2023/03/11 03:46:42;;;;;;;0.40;0.40;;;;;;;20.77;33.13;98157.30;1856833;76;28184;-57
2023/03/11 03:49:31;;;;;;;0.30;0.30;;;;;;;20.78;33.11;98173.96;1878271;76;28184;-56
2023/03/11 03:52:19;;;;;;;0.23;0.23;;;;;;;20.79;33.08;98176.99;1841157;76;28130;-55
2023/03/11 03:55:09;;;;;;;0.40;0.40;;;;;;;20.80;33.09;98159.52;1874980;76;28185;-56
2023/03/11 03:57:58;;;;;;;0.40;0.40;;;;;;;20.80;33.09;98163.61;1865187;76;28209;-56
2023/03/11 04:00:48;;;;;;;0.30;0.30;;;;;;;20.79;33.10;98155.16;1846429;77;28137;-56
2023/03/11 04:03:38;;;;;;;0.70;0.60;;;;;;;20.79;33.08;98145.61;1854817;76;28099;-55
2023/03/11 04:06:28;;;;;;;0.40;0.40;;;;;;;20.80;33.10;98164.98;1847615;76;28307;-55
2023/03/11 04:09:22;;;;;;;0.30;0.30;;;;;;;20.80;33.10;98172.33;1868639;76;28064;-54
2023/03/11 04:12:13;;;;;;;0.30;0.30;;;;;;;20.81;33.10;98180.82;1851947;76;38812;-56
2023/03/11 04:15:02;;;;;;;0.30;0.30;;;;;;;20.80;33.08;98173.16;1847625;76;28060;-54
2023/03/11 04:17:52;;;;;;;0.40;0.40;;;;;;;20.79;33.12;98143.41;1847375;76;28231;-55
2023/03/11 04:20:40;;;;;;;0.40;0.40;;;;;;;20.80;33.13;98171.80;1838191;77;28141;-53
2023/03/11 04:23:29;;;;;;;0.50;0.50;;;;;;;20.79;33.11;98163.34;1837530;77;28142;-54
2023/03/11 04:26:18;;;;;;;0.47;0.47;;;;;;;20.80;33.14;98164.14;1854315;77;28162;-55
2023/03/11 04:29:07;;;;;;;0.50;0.45;;;;;;;20.80;33.12;98179.16;1836115;77;28272;-54
2023/03/11 04:31:56;;;;;;;0.30;0.30;;;;;;;20.81;33.12;98140.72;1851264;76;28168;-52
2023/03/11 04:34:45;;;;;;;0.35;0.30;;;;;;;20.82;33.12;98129.27;1837447;77;28111;-56
2023/03/11 04:37:35;;;;;;;0.33;0.33;;;;;;;20.79;33.12;98148.34;1862609;76;28177;-53
2023/03/11 04:40:24;;;;;;;0.28;0.28;;;;;;;20.81;33.11;98150.80;1838298;76;28115;-56
2023/03/11 04:43:13;;;;;;;0.40;0.40;;;;;;;20.80;33.12;98147.77;1868832;76;28107;-55
2023/03/11 04:46:01;;;;;;;0.30;0.30;;;;;;;20.80;33.15;98138.22;1848289;76;28057;-55
2023/03/11 04:48:50;;;;;;;0.45;0.45;;;;;;;20.81;33.14;98156.25;1847514;76;28169;-53
2023/03/11 04:51:39;;;;;;;0.28;0.28;;;;;;;20.80;33.12;98151.33;1836917;77;28201;-54
2023/03/11 04:54:28;;;;;;;0.30;0.30;;;;;;;20.82;33.14;98163.38;1868749;76;28044;-53
2023/03/11 04:57:17;;;;;;;0.30;0.30;;;;;;;20.82;33.10;98151.09;1826166;77;28178;-51
2023/03/11 05:00:10;;;;;;;0.40;0.40;;;;;;;20.81;33.13;98135.25;1851210;77;28188;-54
2023/03/11 05:02:59;;;;;;;0.30;0.30;;;;;;;20.81;33.12;98156.25;1856929;77;28111;-54
2023/03/11 05:05:49;;;;;;;0.80;0.40;;;;;;;20.79;33.14;98119.68;1852976;76;28169;-54
2023/03/11 05:08:39;;;;;;;0.40;0.35;;;;;;;20.78;33.15;98153.50;1847739;76;31078;-55
2023/03/11 05:11:28;;;;;;;0.28;0.28;;;;;;;20.80;33.14;98148.61;1847815;76;28165;-55
2023/03/11 05:14:17;;;;;;;0.40;0.40;;;;;;;20.81;33.14;98154.89;1848283;76;28168;-57
2023/03/11 05:17:10;;;;;;;0.30;0.30;;;;;;;20.80;33.17;98125.94;1852314;76;28183;-55
2023/03/11 05:19:59;;;;;;;0.45;0.45;;;;;;;20.80;33.19;98145.88;1858876;76;28207;-54
2023/03/11 05:22:49;;;;;;;0.25;0.25;;;;;;;20.80;33.17;98145.05;1858284;76;28304;-54
2023/03/11 05:25:38;;;;;;;0.30;0.30;;;;;;;20.80;33.15;98155.95;1857121;76;28111;-54
2023/03/11 05:28:27;;;;;;;0.40;0.40;;;;;;;20.79;33.21;98152.96;1851347;76;28112;-57
2023/03/11 05:31:16;;;;;;;0.30;0.30;;;;;;;20.82;33.19;98153.83;1847734;76;28100;-51
2023/03/11 05:34:05;;;;;;;0.40;0.40;;;;;;;20.81;33.14;98122.14;1847530;76;28146;-57
2023/03/11 05:36:53;;;;;;;0.40;0.40;;;;;;;20.82;33.18;98115.05;1850754;76;28134;-54
2023/03/11 05:39:43;;;;;;;0.30;0.30;;;;;;;20.82;33.14;98111.52;1837275;77;28213;-57
2023/03/11 05:42:32;;;;;;;0.20;0.20;;;;;;;20.82;33.17;98109.59;1857983;76;28250;-56
2023/03/11 05:45:20;;;;;;;0.50;0.50;;;;;;;20.81;33.15;98124.88;1858528;76;28064;-57
2023/03/11 05:48:10;;;;;;;0.28;0.28;;;;;;;20.81;33.15;98107.13;1837285;77;28134;-57
2023/03/11 05:50:58;;;;;;;1.30;0.30;;;;;;;20.81;33.17;98078.48;1849157;76;28164;-53
2023/03/11 05:53:48;;;;;;;0.30;0.30;;;;;;;20.80;33.16;98096.75;1868913;76;28105;-54
2023/03/11 05:56:38;;;;;;;0.28;0.28;;;;;;;20.82;33.17;98118.34;1847853;76;28188;-55
2023/03/11 05:59:27;;;;;;;0.40;0.40;;;;;;;20.81;33.19;98118.05;1868775;76;28167;-54
2023/03/11 06:02:17;;;;;;;0.42;0.42;;;;;;;20.80;33.16;98104.11;1849629;76;28087;-54
2023/03/11 06:05:06;;;;;;;0.33;0.33;;;;;;;20.82;33.22;98142.91;1862364;76;28166;-56
2023/03/11 06:07:56;;;;;;;0.33;0.33;;;;;;;20.80;33.22;98132.77;1837789;77;28199;-54
2023/03/11 06:10:45;;;;;;;0.30;0.30;;;;;;;20.80;33.22;98130.03;1840438;77;28240;-52
2023/03/11 06:13:34;;;;;;;0.40;0.40;;;;;;;20.81;33.23;98130.33;1848986;76;28111;-55
2023/03/11 06:16:25;;;;;;;0.40;0.40;;;;;;;20.83;33.19;98141.81;1868889;76;28129;-54
2023/03/11 06:19:14;;;;;;;0.20;0.20;;;;;;;20.80;33.18;98119.12;1847876;76;28205;-53
2023/03/11 06:22:04;;;;;;;0.30;0.30;;;;;;;20.80;33.22;98144.51;1841069;77;28212;-53
2023/03/11 06:24:53;;;;;;;0.30;0.30;;;;;;;20.82;33.22;98155.19;1848418;76;28103;-53
2023/03/11 06:27:43;;;;;;;0.20;0.20;;;;;;;20.80;33.21;98144.51;1831345;77;31205;-58
2023/03/11 06:30:32;;;;;;;0.40;0.40;;;;;;;20.81;33.23;98158.98;1846356;77;28088;-56
2023/03/11 06:33:28;;;;;;;0.40;0.40;;;;;;;20.80;33.22;98155.95;1852186;76;28203;-53
2023/03/11 06:36:18;;;;;;;0.70;0.42;;;;;;;20.81;33.24;98166.64;1848890;76;28158;-57
2023/03/11 06:39:08;;;;;;;0.20;0.20;;;;;;;20.81;33.23;98148.07;1848125;76;28251;-54
2023/03/11 06:41:57;;;;;;;0.30;0.30;;;;;;;20.81;33.21;98168.54;1856778;77;28151;-55
2023/03/11 06:44:50;;;;;;;0.40;0.40;;;;;;;20.81;33.23;98143.44;1851976;76;28269;-54
2023/03/11 06:47:40;;;;;;;0.30;0.30;;;;;;;20.82;33.20;98145.08;1849853;76;28175;-58
2023/03/11 06:50:28;;;;;;;0.20;0.20;;;;;;;20.81;33.26;98180.82;1861748;76;28219;-56
2023/03/11 06:53:18;;;;;;;0.27;0.27;;;;;;;20.82;33.23;98161.45;1859613;76;28111;-55
2023/03/11 06:56:10;;;;;;;0.30;0.30;;;;;;;20.81;33.21;98162.55;1841298;77;28208;-56
2023/03/11 06:59:00;;;;;;;0.37;0.37;;;;;;;20.81;33.23;98142.61;1848609;76;28118;-57
2023/03/11 07:01:50;;;;;;;0.20;0.20;;;;;;;20.80;33.27;98167.70;1862779;76;28234;-56
2023/03/11 07:04:39;;;;;;;0.30;0.30;;;;;;;20.81;33.24;98166.64;1858479;76;28112;-57
2023/03/11 07:07:28;;;;;;;0.30;0.30;;;;;;;20.81;33.27;98176.19;1853679;76;30058;-57
2023/03/11 07:10:17;;;;;;;1.10;0.47;;;;;;;20.82;33.25;98183.28;1846568;76;28285;-55
2023/03/11 07:13:05;;;;;;;0.50;0.30;;;;;;;20.83;33.26;98182.75;1846981;77;28285;-52
2023/03/11 07:16:06;;;;;;;0.20;0.20;;;;;;;20.83;33.27;98181.38;1836284;77;28254;-51
2023/03/11 07:19:01;;;;;;;0.40;0.40;;;;;;;20.82;33.25;98183.84;1853706;76;28096;-53
2023/03/11 07:21:49;;;;;;;0.35;0.35;;;;;;;20.80;33.26;98187.34;1849894;76;28072;-54
2023/03/11 07:24:38;;;;;;;0.20;0.20;;;;;;;20.82;33.26;98215.23;1847452;76;28130;-54
2023/03/11 07:27:28;;;;;;;0.30;0.30;;;;;;;20.81;33.29;98206.21;1835142;77;28322;-53
2023/03/11 07:30:17;;;;;;;0.33;0.33;;;;;;;20.83;33.27;98190.94;1853657;76;28154;-56
2023/03/11 07:33:06;;;;;;;0.20;0.20;;;;;;;20.84;33.24;98213.07;1848428;76;28201;-53
2023/03/11 07:35:55;;;;;;;0.27;0.27;;;;;;;20.85;33.23;98207.88;1842326;76;28184;-52
2023/03/11 07:38:43;;;;;;;0.30;0.30;;;;;;;20.82;33.21;98217.39;1846526;77;28100;-54
2023/03/11 07:41:34;;;;;;;0.23;0.20;;;;;;;20.81;33.26;98228.58;1854000;76;28707;-54
2023/03/11 07:44:22;;;;;;;0.20;0.20;;;;;;;20.82;33.29;98232.41;1847098;76;28065;-53
2023/03/11 07:47:10;;;;;;;0.20;0.20;;;;;;;20.82;33.26;98233.77;1844167;76;28257;-55
2023/03/11 07:49:59;;;;;;;0.28;0.28;;;;;;;20.84;33.26;98228.08;1856609;76;28104;-58
2023/03/11 07:52:48;;;;;;;0.20;0.20;;;;;;;20.85;33.22;98240.63;1852402;76;27984;-56
2023/03/11 07:55:36;;;;;;;0.30;0.30;;;;;;;20.84;33.22;98254.02;1856977;77;28187;-55
2023/03/11 07:58:24;;;;;;;0.30;0.30;;;;;;;20.84;33.20;98249.91;1835757;77;28257;-56
2023/03/11 08:01:21;;;;;;;0.30;0.30;;;;;;;20.85;33.22;98251.02;1837586;77;35281;-55
2023/03/11 08:04:11;;;;;;;0.30;0.20;;;;;;;20.84;33.22;98244.45;1842589;76;28187;-54
2023/03/11 08:06:59;;;;;;;0.20;0.20;;;;;;;20.85;33.20;98259.73;1847914;76;28321;-55
2023/03/11 08:09:47;;;;;;;0.20;0.20;;;;;;;20.85;33.22;98267.92;1850446;76;28119;-55
2023/03/11 08:12:35;;;;;;;0.30;0.30;;;;;;;20.85;33.24;98268.76;1858836;76;28145;-54
2023/03/11 08:15:24;;;;;;;0.28;0.28;;;;;;;20.84;33.24;98274.48;1860120;76;28731;-56
2023/03/11 08:18:12;;;;;;;0.30;0.30;;;;;;;20.85;33.24;98266.03;1856530;76;28114;-54
2023/03/11 08:21:06;;;;;;;0.30;0.30;;;;;;;20.85;33.25;98271.48;1856656;76;28292;-54
2023/03/11 08:24:00;;;;;;;0.30;0.30;;;;;;;20.87;33.22;98265.77;1859536;76;28200;-52
2023/03/11 08:26:48;;;;;;;0.25;0.25;;;;;;;20.85;33.25;98272.85;1860689;76;28059;-55
2023/03/11 08:29:36;;;;;;;0.20;0.20;;;;;;;20.85;33.28;98267.39;1869630;76;28137;-55
2023/03/11 08:32:25;;;;;;;0.20;0.20;;;;;;;20.84;33.26;98291.66;1848852;76;28190;-55
2023/03/11 08:35:13;;;;;;;0.30;0.30;;;;;;;20.86;33.25;98305.07;1859997;76;28145;-54
2023/03/11 08:38:01;;;;;;;0.20;0.20;;;;;;;20.85;33.28;98300.14;1858737;76;28056;-54
2023/03/11 08:40:49;;;;;;;0.30;0.30;;;;;;;20.79;33.29;98307.16;1871798;76;28266;-51
2023/03/11 08:43:38;;;;;;;0.35;0.35;;;;;;;20.84;33.31;98323.05;1867539;76;28059;-54
2023/03/11 08:46:32;;;;;;;0.40;0.40;;;;;;;20.86;33.30;98326.91;1862780;76;28169;-54
2023/03/11 08:49:21;;;;;;;0.20;0.20;;;;;;;20.86;33.29;98331.83;1866220;76;28293;-56
2023/03/11 08:52:09;;;;;;;0.23;0.23;;;;;;;20.86;33.29;98337.30;1874138;76;28060;-56
2023/03/11 08:54:57;;;;;;;0.40;0.27;;;;;;;20.84;33.31;98342.15;1877285;76;28132;-55
2023/03/11 08:57:45;;;;;;;0.20;0.20;;;;;;;20.86;33.30;98331.83;1863038;76;28092;-55
2023/03/11 09:00:34;;;;;;;0.20;0.20;;;;;;;20.86;33.28;98333.73;1857273;76;28043;-56
2023/03/11 09:03:23;;;;;;;0.40;0.20;;;;;;;20.86;33.28;98340.02;1856849;76;28651;-56
2023/03/11 09:06:14;;;;;;;0.20;0.20;;;;;;;20.86;33.29;98337.83;1878267;76;28110;-54
2023/03/11 09:09:03;;;;;;;0.25;0.25;;;;;;;20.88;33.29;98349.31;1878212;76;28139;-58
2023/03/11 09:11:52;;;;;;;0.23;0.23;;;;;;;20.87;33.30;98349.84;1847769;76;28170;-53
2023/03/11 09:14:42;;;;;;;0.30;0.30;;;;;;;20.86;33.31;98339.19;1836351;77;28490;-54
2023/03/11 09:17:30;;;;;;;0.20;0.20;;;;;;;20.85;33.30;98332.06;1837481;77;28178;-53
2023/03/11 09:20:18;;;;;;;0.37;0.37;;;;;;;20.87;33.29;98353.10;1840158;77;28060;-54
2023/03/11 09:23:08;;;;;;;0.30;0.30;;;;;;;20.87;33.31;98342.19;1836218;77;28053;-54
2023/03/11 09:25:56;;;;;;;0.30;0.30;;;;;;;20.87;33.31;98353.94;1847562;76;28212;-54
2023/03/11 09:28:47;;;;;;;0.88;0.50;;;;;;;20.86;33.33;98341.92;1857228;77;28521;-56
2023/03/11 09:31:34;;;;;;;0.40;0.40;;;;;;;20.87;33.75;98343.02;1839272;77;28185;-54
2023/03/11 09:34:23;;;;;;;0.47;0.47;;;;;;;20.87;33.75;98343.02;1836163;77;28147;-55
2023/03/11 09:37:11;;;;;;;0.50;0.50;;;;;;;20.87;33.33;98353.10;1855346;77;28078;-52
2023/03/11 09:39:59;;;;;;;0.80;0.80;;;;;;;20.87;33.32;98351.74;1857598;76;28064;-54
2023/03/11 09:43:06;;;;;;;1.00;0.68;;;;;;;20.88;33.34;98362.96;1848740;76;28134;-51
2023/03/11 09:45:57;;;;;;;0.60;0.60;;;;;;;20.89;33.34;98363.23;1847714;76;28155;-54
2023/03/11 09:48:49;;;;;;;0.70;0.70;;;;;;;20.86;33.35;98355.03;1789220;77;28211;-55
2023/03/11 09:51:40;;;;;;;0.80;0.80;;;;;;;20.88;33.35;98360.23;1845690;77;28061;-51
2023/03/11 09:54:31;;;;;;;0.98;0.80;;;;;;;20.87;33.38;98357.20;1840626;77;28162;-55
2023/03/11 09:57:25;;;;;;;0.62;0.62;;;;;;;20.88;33.38;98359.70;1836582;77;28127;-58
2023/03/11 10:00:17;;;;;;;0.75;0.75;;;;;;;20.89;33.35;98357.77;1862474;76;28165;-56
2023/03/11 10:03:08;;;;;;;1.00;0.80;;;;;;;20.88;33.37;98360.23;1848415;77;28228;-54
2023/03/11 10:05:59;;;;;;;0.70;0.62;;;;;;;20.88;33.38;98357.50;1851093;76;28233;-54
2023/03/11 10:08:54;;;;;;;1.02;0.95;;;;;;;20.87;33.38;98358.03;1849974;76;28059;-55
2023/03/11 10:12:01;;;;;;;0.80;0.80;;;;;;;20.89;33.39;98357.77;1836205;77;28174;-53
2023/03/11 10:15:27;;;;;;;1.00;0.87;;;;;;;20.89;33.39;98371.42;1829843;77;28200;-55
2023/03/11 10:18:31;;;;;;;0.80;0.80;;;;;;;20.88;33.41;98365.16;1858302;76;28282;-56
2023/03/11 10:21:41;;;;;;;0.80;0.80;;;;;;;20.83;33.46;98362.34;1846339;77;28266;-52
2023/03/11 10:24:41;;;;;;;0.90;0.90;;;;;;;20.84;33.47;98365.91;1811631;76;28563;-55
2023/03/11 10:27:41;;;;;;;0.90;0.70;;;;;;;20.85;33.48;98377.09;1849331;77;28043;-55
2023/03/11 10:30:44;;;;;;;1.57;1.00;;;;;;;20.84;33.51;98371.38;1836852;77;31059;-55
2023/03/11 10:33:38;;;;;;;1.65;0.90;;;;;;;20.85;33.52;98376.56;1855409;76;28056;-55
2023/03/11 10:36:42;;;;;;;0.98;0.90;;;;;;;20.85;33.50;98366.18;1838914;77;28089;-54
2023/03/11 10:39:32;;;;;;;1.00;1.00;;;;;;;20.87;33.44;98355.83;1847890;76;28108;-57
2023/03/11 10:42:26;;;;;;;1.32;0.72;;;;;;;20.88;33.50;98352.05;1863530;76;28321;-56
2023/03/11 10:45:15;;;;;;;0.82;0.80;;;;;;;20.88;33.44;98358.86;1858507;76;28144;-55
2023/03/11 10:48:06;;;;;;;0.98;0.98;;;;;;;20.90;33.46;98367.63;1853886;76;28046;-56
2023/03/11 10:51:17;;;;;;;1.00;1.00;;;;;;;20.91;33.46;98377.48;1848536;76;28163;-54
2023/03/11 10:54:05;;;;;;;0.97;0.97;;;;;;;20.92;33.43;98381.84;1836882;77;28670;-55
2023/03/11 10:57:03;;;;;;;0.80;0.80;;;;;;;20.90;33.49;98364.36;1836028;77;28131;-57
2023/03/11 10:59:56;;;;;;;1.27;1.17;;;;;;;20.92;33.46;98364.10;1854126;77;28186;-56
2023/03/11 11:02:51;;;;;;;0.90;0.90;;;;;;;20.92;33.48;98362.73;1839233;77;28246;-57
2023/03/11 11:05:40;;;;;;;1.00;1.00;;;;;;;20.91;33.46;98366.56;1850963;76;30203;-58
2023/03/11 11:08:29;;;;;;;1.03;1.03;;;;;;;20.92;33.44;98377.22;1847907;76;28069;-57
2023/03/11 11:11:23;;;;;;;1.10;1.10;;;;;;;20.92;33.46;98362.20;1835896;77;28175;-58
2023/03/11 11:14:12;;;;;;;1.00;1.00;;;;;;;20.95;33.45;98364.45;1878298;75;28301;-55
2023/03/11 11:17:00;;;;;;;1.12;1.02;;;;;;;20.96;33.46;98356.52;1852379;77;28263;-52
2023/03/11 11:19:51;;;;;;;1.15;1.05;;;;;;;20.94;33.45;98362.78;1873913;75;28188;-55
2023/03/11 11:22:41;;;;;;;1.40;1.30;;;;;;;20.97;33.47;98375.09;1854411;75;28292;-55
2023/03/11 11:25:35;;;;;;;1.12;1.02;;;;;;;20.95;33.49;98369.07;1866712;75;28164;-55
2023/03/11 11:28:23;;;;;;;0.90;0.90;;;;;;;20.94;33.49;98361.95;1866097;75;28552;-56
2023/03/11 11:31:24;;;;;;;1.25;1.20;;;;;;;20.96;33.49;98363.34;1862867;75;28050;-55
2023/03/11 11:34:28;;;;;;;1.00;1.00;;;;;;;20.95;33.51;98354.05;1862803;75;28176;-57
2023/03/11 11:37:17;;;;;;;1.22;1.15;;;;;;;20.94;33.52;98345.56;1884602;75;31100;-56
2023/03/11 11:40:14;;;;;;;1.00;1.00;;;;;;;20.93;33.54;98365.23;1866584;75;28266;-54
2023/03/11 11:43:12;;;;;;;1.10;1.00;;;;;;;20.95;33.52;98375.36;1884545;75;36745;-53
2023/03/11 11:46:04;;;;;;;1.57;1.12;;;;;;;20.96;33.50;98370.17;1874294;75;28219;-52
2023/03/11 11:49:18;;;;;;;1.72;1.12;;;;;;;20.93;33.55;98368.50;1874143;75;28180;-53
2023/03/11 11:52:21;;;;;;;1.00;1.00;;;;;;;20.95;33.56;98382.72;1878626;75;28138;-54
2023/03/11 11:55:31;;;;;;;1.00;1.00;;;;;;;20.93;33.60;98384.87;1881206;75;28177;-56
2023/03/11 11:58:20;;;;;;;1.37;1.27;;;;;;;20.91;33.60;98377.48;1873737;75;28125;-53
2023/03/11 12:01:18;;;;;;;1.20;1.00;;;;;;;20.92;33.62;98383.21;1870739;75;28180;-52
2023/03/11 12:04:37;;;;;;;1.20;1.00;;;;;;;20.94;33.63;98374.23;1869791;75;28176;-56
2023/03/11 12:07:49;;;;;;;0.93;0.93;;;;;;;20.92;33.62;98379.95;1884542;75;28172;-55
2023/03/11 12:10:49;;;;;;;1.00;1.00;;;;;;;20.90;33.66;98371.72;1884681;75;28222;-52
2023/03/11 12:13:59;;;;;;;0.82;0.82;;;;;;;20.90;33.67;98379.91;1852285;77;28229;-55
2023/03/11 12:16:57;;;;;;;1.05;1.05;;;;;;;20.92;33.68;98373.12;1848405;76;28124;-55
2023/03/11 12:19:51;;;;;;;0.80;0.80;;;;;;;20.90;33.68;98373.08;1847349;76;28168;-54
2023/03/11 12:22:58;;;;;;;1.00;1.00;;;;;;;20.90;33.71;98372.55;1847798;76;28155;-54
2023/03/11 12:25:58;;;;;;;0.88;0.80;;;;;;;20.92;33.67;98370.92;1866962;76;28589;-56
2023/03/11 12:28:50;;;;;;;1.07;1.05;;;;;;;20.92;33.68;98384.58;1857553;76;28532;-55
2023/03/11 12:31:41;;;;;;;0.95;0.95;;;;;;;20.93;33.73;98374.80;1852812;76;28135;-56
2023/03/11 12:34:31;;;;;;;1.05;0.95;;;;;;;20.96;33.69;98368.80;1847918;76;28201;-58
2023/03/11 12:37:22;;;;;;;1.10;1.10;;;;;;;20.97;33.67;98375.09;1847633;76;28232;-54
2023/03/11 12:40:35;;;;;;;0.90;0.90;;;;;;;20.96;33.70;98377.53;1868890;76;28111;-53
2023/03/11 12:43:34;;;;;;;0.82;0.82;;;;;;;20.96;33.68;98352.43;1802043;76;28125;-56
2023/03/11 12:46:26;;;;;;;1.00;0.98;;;;;;;20.93;33.74;98358.95;1837620;77;28153;-54
2023/03/11 12:49:15;;;;;;;1.47;0.95;;;;;;;20.96;33.70;98348.87;1849177;76;28223;-57
2023/03/11 12:52:10;;;;;;;1.40;1.00;;;;;;;20.97;33.73;98362.28;1847712;76;28230;-56
2023/03/11 12:55:01;;;;;;;1.00;1.00;;;;;;;20.98;33.74;98357.66;1867246;76;28113;-54
2023/03/11 12:57:54;;;;;;;0.90;0.80;;;;;;;20.98;33.70;98351.64;1855041;76;28069;-54
2023/03/11 13:00:48;;;;;;;0.90;0.90;;;;;;;20.97;33.72;98344.54;1868934;76;28053;-56
2023/03/11 13:03:48;;;;;;;0.70;0.70;;;;;;;20.96;33.72;98352.43;1847895;76;28091;-57
2023/03/11 13:06:40;;;;;;;0.90;0.90;;;;;;;20.97;33.74;98345.91;1847763;76;28119;-55
2023/03/11 13:09:28;;;;;;;0.85;0.80;;;;;;;20.98;33.75;98346.73;1868812;76;28059;-57
2023/03/11 13:12:39;;;;;;;0.80;0.80;;;;;;;20.98;33.79;98355.73;1853137;76;28103;-53
2023/03/11 13:15:29;;;;;;;0.95;0.95;;;;;;;21.02;33.70;98355.54;1864270;76;28123;-55
2023/03/11 13:18:24;;;;;;;1.70;0.90;;;;;;;20.99;33.78;98351.10;1859540;76;28136;-57
2023/03/11 13:21:31;;;;;;;1.20;1.10;;;;;;;21.00;33.76;98348.14;1858829;76;28260;-59
2023/03/11 13:24:24;;;;;;;0.90;0.90;;;;;;;21.02;33.75;98347.87;1858694;76;28326;-54
2023/03/11 13:27:15;;;;;;;1.40;0.88;;;;;;;20.99;33.74;98338.28;1845317;77;28069;-58